createdAt,value
2019-04-04T00:01:43.013Z,99100.48
2019-04-04T00:04:14.591Z,99101.74
2019-04-04T00:06:45.776Z,99092.86
2019-04-04T00:09:17.455Z,99100.30
2019-04-04T00:11:49.033Z,99098.59
2019-04-04T00:14:20.265Z,99073.98
2019-04-04T00:16:51.495Z,99090.45
2019-04-04T00:19:22.681Z,99105.30
2019-04-04T00:21:55.348Z,99087.70
2019-04-04T00:24:26.666Z,99091.43
2019-04-04T00:26:57.953Z,99090.27
2019-04-04T00:29:29.507Z,99087.14
2019-04-04T00:32:00.810Z,99076.75
2019-04-04T00:34:32.229Z,99085.50
2019-04-04T00:37:04.772Z,99077.11
2019-04-04T00:39:37.989Z,99079.84
2019-04-04T00:42:10.721Z,99073.45
2019-04-04T00:44:42.053Z,99078.58
2019-04-04T00:47:13.983Z,99084.66
2019-04-04T00:49:45.285Z,99082.75
2019-04-04T00:52:16.552Z,99081.59
2019-04-04T00:54:47.933Z,99098.45
2019-04-04T00:57:20.160Z,99125.84
2019-04-04T00:59:53.587Z,99239.13
2019-04-04T01:02:27.480Z,99133.02
2019-04-04T01:05:01.342Z,99156.94
2019-04-04T01:07:33.918Z,99236.41
2019-04-04T01:10:06.638Z,99228.69
2019-04-04T01:12:37.921Z,99290.27
2019-04-04T01:15:10.330Z,99333.84
2019-04-04T01:17:41.525Z,99389.39
2019-04-04T01:20:15.121Z,99450.30
2019-04-04T01:22:46.338Z,99441.61
2019-04-04T01:25:18.639Z,99481.39
2019-04-04T01:27:50.049Z,99493.47
2019-04-04T01:30:21.343Z,99500.55
2019-04-04T01:32:52.715Z,99515.52
2019-04-04T01:35:24.003Z,99522.78
2019-04-04T01:37:56.102Z,99559.85
2019-04-04T01:40:29.040Z,99545.23
2019-04-04T01:43:00.249Z,99570.10
2019-04-04T01:45:32.872Z,99555.56
2019-04-04T01:48:04.145Z,99569.80
2019-04-04T01:50:35.867Z,99559.95
2019-04-04T01:53:07.152Z,99562.81
2019-04-04T01:55:39.341Z,99563.09
2019-04-04T01:58:10.752Z,99543.38
2019-04-04T02:00:45.630Z,99558.22
2019-04-04T02:03:15.534Z,99579.06
2019-04-04T02:05:47.330Z,99572.48
2019-04-04T02:08:18.640Z,99582.18
2019-04-04T02:10:49.792Z,99580.19
2019-04-04T02:13:21.030Z,99572.83
2019-04-04T02:15:52.257Z,99568.38
2019-04-04T02:18:24.044Z,99549.16
2019-04-04T02:20:57.973Z,99546.21
2019-04-04T02:23:31.426Z,99538.66
2019-04-04T02:26:04.836Z,99544.56
2019-04-04T02:28:35.584Z,99544.95
2019-04-04T02:31:08.180Z,99529.84
2019-04-04T02:33:39.984Z,99510.11
2019-04-04T02:36:13.778Z,99494.05
2019-04-04T02:38:45.761Z,99497.02
2019-04-04T02:41:17.155Z,99491.88
2019-04-04T02:43:48.375Z,99486.88
2019-04-04T02:46:21.634Z,99499.39
2019-04-04T02:48:53.561Z,99517.25
2019-04-04T02:51:26.147Z,99519.47
2019-04-04T02:53:57.450Z,99527.28
2019-04-04T02:56:28.645Z,99532.53
2019-04-04T02:59:00.679Z,99544.75
2019-04-04T03:01:33.154Z,99537.88
2019-04-04T03:04:04.866Z,99550.22
2019-04-04T03:06:36.762Z,99548.65
2019-04-04T03:09:10.602Z,99546.09
2019-04-04T03:11:41.989Z,99544.38
2019-04-04T03:14:13.369Z,99556.97
2019-04-04T03:16:46.076Z,99568.70
2019-04-04T03:19:17.388Z,99578.05
2019-04-04T03:21:48.625Z,99577.98
2019-04-04T03:24:19.916Z,99578.94
2019-04-04T03:26:52.611Z,99575.19
2019-04-04T03:29:26.124Z,99575.03
2019-04-04T03:31:57.376Z,99561.08
2019-04-04T03:34:28.725Z,99556.12
2019-04-04T03:37:00.014Z,99547.98
2019-04-04T03:39:31.244Z,99557.63
2019-04-04T03:42:06.979Z,99571.50
2019-04-04T03:44:35.702Z,99555.63
2019-04-04T03:47:10.106Z,99546.55
2019-04-04T03:49:39.965Z,99553.62
2019-04-04T03:52:11.657Z,99580.83
2019-04-04T03:54:42.955Z,99584.16
2019-04-04T03:57:14.772Z,99597.52
2019-04-04T03:59:46.001Z,99599.91
2019-04-04T04:02:18.753Z,99587.58
2019-04-04T04:04:50.268Z,99568.88
2019-04-04T04:07:21.682Z,99588.91
2019-04-04T04:09:53.124Z,99611.97
2019-04-04T04:12:25.124Z,99609.97
2019-04-04T04:14:56.593Z,99606.32
2019-04-04T04:17:29.612Z,99607.71
2019-04-04T04:20:04.069Z,99575.65
2019-04-04T04:22:34.000Z,99559.91
2019-04-04T04:25:05.923Z,99473.27
2019-04-04T04:27:37.381Z,99471.23
2019-04-04T04:30:09.662Z,99467.48
2019-04-04T04:32:41.055Z,99484.16
2019-04-04T04:35:12.341Z,99464.06
2019-04-04T04:37:43.783Z,99472.73
2019-04-04T04:40:15.521Z,99466.34
2019-04-04T04:42:47.018Z,99175.21
2019-04-04T04:45:19.588Z,99174.36
2019-04-04T04:47:50.884Z,99170.36
2019-04-04T04:50:22.221Z,99170.77
2019-04-04T04:52:53.439Z,99175.39
2019-04-04T04:55:27.211Z,99181.53
2019-04-04T04:57:57.771Z,99180.44
2019-04-04T05:00:30.390Z,99179.03
2019-04-04T05:03:01.801Z,99174.97
2019-04-04T05:05:33.118Z,99186.42
2019-04-04T05:08:04.636Z,99189.30
2019-04-04T05:10:36.083Z,99179.95
2019-04-04T05:13:07.873Z,99165.16
2019-04-04T05:15:39.740Z,99150.20
2019-04-04T05:18:12.054Z,99136.84
2019-04-04T05:20:43.670Z,99141.45
2019-04-04T05:23:15.693Z,99162.53
2019-04-04T05:25:53.737Z,99157.54
2019-04-04T05:28:20.574Z,99163.27
2019-04-04T05:30:54.040Z,99165.16
2019-04-04T05:33:27.433Z,99174.41
2019-04-04T05:35:58.674Z,99193.02
2019-04-04T05:38:29.955Z,99209.79
2019-04-04T05:41:01.404Z,99212.17
2019-04-04T05:43:33.064Z,99211.61
2019-04-04T05:46:04.311Z,99205.39
2019-04-04T05:48:36.064Z,100241.01
2019-04-04T05:51:08.754Z,100143.27
2019-04-04T05:53:40.125Z,100075.09
2019-04-04T05:56:13.033Z,100023.00
2019-04-04T05:58:44.483Z,99993.53
2019-04-04T06:01:17.210Z,99978.14
2019-04-04T06:03:48.859Z,99930.45
2019-04-04T06:06:20.208Z,99923.59
2019-04-04T06:08:51.517Z,99915.84
2019-04-04T06:11:23.323Z,99898.60
2019-04-04T06:13:54.694Z,99902.99
2019-04-04T06:16:25.964Z,99900.19
2019-04-04T06:18:57.680Z,99896.84
2019-04-04T06:21:29.112Z,99882.33
2019-04-04T06:24:00.526Z,99877.03
2019-04-04T06:26:31.915Z,99877.84
2019-04-04T06:29:05.520Z,99872.05
2019-04-04T06:31:53.540Z,99882.77
2019-04-04T06:34:24.866Z,99881.26
2019-04-04T06:36:56.212Z,99888.69
2019-04-04T06:39:27.454Z,99879.70
2019-04-04T06:41:58.956Z,99876.05
2019-04-04T06:44:31.214Z,99866.61
2019-04-04T06:47:02.582Z,99870.11
2019-04-04T06:49:35.476Z,99866.98
2019-04-04T06:52:09.475Z,99878.63
2019-04-04T06:54:41.952Z,99875.43
2019-04-04T06:57:15.108Z,99856.07
2019-04-04T06:59:47.003Z,99851.98
2019-04-04T07:02:18.242Z,99850.88
2019-04-04T07:04:49.647Z,99842.74
2019-04-04T07:07:21.242Z,99849.67
2019-04-04T07:09:52.644Z,99865.20
2019-04-04T07:12:28.604Z,99861.41
2019-04-04T07:15:00.433Z,99837.62
2019-04-04T07:17:35.539Z,99824.78
2019-04-04T07:20:07.883Z,99822.09
2019-04-04T07:22:40.782Z,99805.52
2019-04-04T07:25:12.191Z,99814.96
2019-04-04T07:27:45.347Z,99826.93
2019-04-04T07:30:16.569Z,99828.25
2019-04-04T07:32:47.730Z,99820.69
2019-04-04T07:35:21.088Z,99809.52
2019-04-04T07:37:56.580Z,99820.70
2019-04-04T07:40:25.262Z,99816.88
2019-04-04T07:42:56.588Z,99809.27
2019-04-04T07:45:27.785Z,99814.87
2019-04-04T07:47:59.003Z,99818.83
2019-04-04T07:50:30.344Z,99821.54
2019-04-04T07:53:04.879Z,99836.98
2019-04-04T07:55:35.701Z,99819.00
2019-04-04T07:58:06.947Z,99830.52
2019-04-04T08:00:40.202Z,99856.75
2019-04-04T08:03:11.492Z,99859.14
2019-04-04T08:05:42.764Z,99876.41
2019-04-04T08:08:13.979Z,99888.16
2019-04-04T08:10:45.753Z,99881.44
2019-04-04T08:13:17.101Z,99890.03
2019-04-04T08:15:49.595Z,99897.07
2019-04-04T08:18:21.446Z,99904.63
2019-04-04T08:20:53.161Z,99903.87
2019-04-04T08:23:25.578Z,99911.75
2019-04-04T08:25:57.171Z,99902.17
2019-04-04T08:28:30.744Z,99872.83
2019-04-04T08:32:38.646Z,99824.41
2019-04-04T08:35:09.850Z,99849.17
2019-04-04T08:37:41.753Z,99831.09
2019-04-04T08:40:13.347Z,99807.25
2019-04-04T08:42:48.026Z,99791.49
2019-04-04T08:45:19.285Z,99769.13
2019-04-04T08:47:50.581Z,99748.67
2019-04-04T08:50:21.872Z,99717.40
2019-04-04T08:52:54.292Z,99685.27
2019-04-04T08:55:27.542Z,99661.30
2019-04-04T08:57:59.423Z,99632.14
2019-04-04T09:00:30.974Z,99619.25
2019-04-04T09:03:09.149Z,99610.93
2019-04-04T09:05:42.274Z,99578.69
2019-04-04T09:08:13.865Z,99557.66
2019-04-04T09:10:49.173Z,99559.06
2019-04-04T09:13:20.631Z,99542.95
2019-04-04T09:15:51.926Z,99540.70
2019-04-04T09:18:23.173Z,99525.61
2019-04-04T09:20:54.490Z,99522.95
2019-04-04T09:23:25.716Z,99530.88
2019-04-04T09:26:05.385Z,99533.38
2019-04-04T09:28:30.077Z,99526.97
2019-04-04T09:31:01.766Z,99533.39
2019-04-04T09:33:33.015Z,99552.86
2019-04-04T09:36:04.655Z,99535.70
2019-04-04T09:38:36.435Z,99536.63
2019-04-04T09:41:10.474Z,99547.91
2019-04-04T09:43:41.774Z,99548.39
2019-04-04T09:46:13.124Z,99554.39
2019-04-04T09:50:23.982Z,99545.70
2019-04-04T09:52:55.836Z,99597.74
2019-04-04T09:55:27.009Z,99611.41
2019-04-04T09:57:58.795Z,99619.14
2019-04-04T10:00:30.146Z,99621.16
2019-04-04T10:03:01.462Z,99630.66
2019-04-04T10:05:32.880Z,99622.42
2019-04-04T10:08:05.315Z,99602.72
2019-04-04T10:10:36.803Z,99605.73
2019-04-04T10:13:07.975Z,99615.13
2019-04-04T10:15:39.267Z,99615.31
2019-04-04T10:18:10.535Z,99618.05
2019-04-04T10:20:41.973Z,99624.64
2019-04-04T10:23:13.645Z,99617.55
2019-04-04T10:25:44.858Z,99612.06
2019-04-04T10:28:18.726Z,99596.67
2019-04-04T10:30:50.143Z,99566.58
2019-04-04T10:33:21.561Z,99554.83
2019-04-04T10:35:55.657Z,99539.38
2019-04-04T10:38:26.986Z,99539.93
2019-04-04T10:40:58.397Z,99522.95
2019-04-04T10:43:29.644Z,99508.10
2019-04-04T10:46:01.109Z,99491.80
2019-04-04T10:48:33.601Z,99483.84
2019-04-04T10:51:05.524Z,99472.25
2019-04-04T10:53:37.475Z,99486.77
2019-04-04T10:56:08.738Z,99491.14
2019-04-04T10:58:40.287Z,99496.43
2019-04-04T11:01:11.671Z,99488.91
2019-04-04T11:03:43.009Z,99479.16
2019-04-04T11:06:14.332Z,99485.67
2019-04-04T11:08:46.029Z,99496.80
2019-04-04T11:11:17.280Z,99510.64
2019-04-04T11:13:48.987Z,99505.44
2019-04-04T11:16:29.917Z,99497.45
2019-04-04T11:18:53.434Z,99504.70
2019-04-04T11:21:24.805Z,99495.53
2019-04-04T11:23:56.080Z,99492.09
2019-04-04T11:26:27.408Z,99495.91
2019-04-04T11:28:58.997Z,99492.17
2019-04-04T11:31:30.853Z,99511.06
2019-04-04T11:34:02.637Z,99507.98
2019-04-04T11:36:34.068Z,99497.96
2019-04-04T11:39:07.645Z,99495.70
2019-04-04T11:41:38.991Z,99495.78
2019-04-04T11:44:10.235Z,99488.73
2019-04-04T11:46:41.536Z,99477.36
2019-04-04T11:49:14.978Z,99458.20
2019-04-04T11:51:46.349Z,99496.31
2019-04-04T11:54:17.599Z,99513.16
2019-04-04T11:56:49.159Z,99509.36
2019-04-04T11:59:20.602Z,99425.12
2019-04-04T12:01:53.213Z,99439.55
2019-04-04T12:04:24.687Z,99380.14
2019-04-04T12:06:56.085Z,99415.14
2019-04-04T12:09:27.586Z,99450.96
2019-04-04T12:11:59.381Z,99492.38
2019-04-04T12:14:31.015Z,99505.42
2019-04-04T12:17:02.906Z,99495.77
2019-04-04T12:19:36.519Z,99502.34
2019-04-04T12:22:08.122Z,99527.47
2019-04-04T12:24:39.306Z,99534.88
2019-04-04T12:27:11.204Z,99532.45
2019-04-04T12:29:43.115Z,99524.67
2019-04-04T12:32:14.929Z,99519.53
2019-04-04T12:34:56.035Z,99528.89
2019-04-04T12:37:27.469Z,99540.16
2019-04-04T12:40:19.384Z,99522.78
2019-04-04T12:42:45.927Z,99549.86
2019-04-04T12:45:18.441Z,99563.67
2019-04-04T12:48:02.289Z,99574.17
2019-04-04T12:50:42.689Z,99592.19
2019-04-04T12:53:20.145Z,99605.99
2019-04-04T12:55:55.722Z,99634.09
2019-04-04T12:58:58.039Z,99668.36
2019-04-04T13:01:38.447Z,99695.78
2019-04-04T13:07:51.977Z,99739.08
2019-04-04T13:10:32.322Z,99755.25
2019-04-04T13:13:16.403Z,99767.48
2019-04-04T13:16:05.667Z,99760.92
2019-04-04T13:18:48.591Z,99762.91
2019-04-04T13:21:43.276Z,99771.13
2019-04-04T13:24:28.641Z,99771.63
2019-04-04T13:27:03.548Z,99779.23
2019-04-04T13:29:39.233Z,99780.70
2019-04-04T13:32:27.119Z,99778.31
2019-04-04T13:35:05.925Z,99779.55
2019-04-04T13:37:45.641Z,99782.88
2019-04-04T13:40:21.506Z,99784.71
2019-04-04T13:42:59.637Z,99788.84
2019-04-04T13:45:33.722Z,99787.90
2019-04-04T13:48:10.687Z,99788.28
2019-04-04T13:50:47.246Z,99791.80
2019-04-04T13:53:26.639Z,99777.75
2019-04-04T13:56:01.523Z,99765.02
2019-04-04T13:58:38.919Z,99760.26
2019-04-04T14:01:13.927Z,99760.45
2019-04-04T14:03:46.838Z,99758.00
2019-04-04T14:06:19.044Z,99763.92
2019-04-04T14:08:50.395Z,99759.45
2019-04-04T14:11:25.056Z,99755.68
2019-04-04T14:13:58.810Z,99753.69
2019-04-04T14:16:31.389Z,99755.18
2019-04-04T14:19:07.745Z,99749.45
2019-04-04T14:21:36.802Z,99755.64
2019-04-04T14:24:13.918Z,99758.08
2019-04-04T14:26:42.210Z,99763.02
2019-04-04T14:29:27.410Z,99767.66
2019-04-04T14:31:52.989Z,99770.73
2019-04-04T14:34:26.420Z,99778.81
2019-04-04T14:36:58.055Z,99777.64
2019-04-04T14:39:29.516Z,99775.45
2019-04-04T14:42:03.672Z,99779.20
2019-04-04T14:44:36.205Z,99784.33
2019-04-04T14:47:07.534Z,99778.22
2019-04-04T14:49:39.237Z,99785.78
2019-04-04T14:52:12.505Z,99789.59
2019-04-04T14:54:43.911Z,99795.89
2019-04-04T14:57:15.559Z,99801.27
2019-04-04T14:59:47.085Z,99787.78
2019-04-04T15:02:19.189Z,99785.35
2019-04-04T15:04:50.648Z,99782.86
2019-04-04T15:07:22.029Z,99782.25
2019-04-04T15:09:53.381Z,99781.33
2019-04-04T15:12:25.441Z,99782.29
2019-04-04T15:14:56.731Z,99775.27
2019-04-04T15:17:28.031Z,99773.02
2019-04-04T15:19:59.589Z,99775.30
2019-04-04T15:22:32.013Z,99772.64
2019-04-04T15:25:04.577Z,99773.69
2019-04-04T15:27:35.801Z,99768.25
2019-04-04T15:30:07.670Z,99763.84
2019-04-04T15:32:40.397Z,99758.84
2019-04-04T15:35:11.866Z,99760.91
2019-04-04T15:37:43.425Z,99767.73
2019-04-04T15:40:15.125Z,99780.36
2019-04-04T15:42:47.650Z,99781.11
2019-04-04T15:45:19.137Z,99788.67
2019-04-04T15:47:51.299Z,99789.09
2019-04-04T15:50:22.961Z,99792.33
2019-04-04T15:52:54.397Z,99793.91
2019-04-04T15:55:25.946Z,99794.25
2019-04-04T15:58:01.504Z,99795.87
2019-04-04T16:00:38.760Z,99802.55
2019-04-04T16:03:10.261Z,99794.75
2019-04-04T16:05:45.546Z,99796.14
2019-04-04T16:08:17.954Z,99798.62
2019-04-04T16:10:49.711Z,99795.44
2019-04-04T16:13:23.553Z,99798.74
2019-04-04T16:15:54.961Z,99803.31
2019-04-04T16:18:26.516Z,99792.29
2019-04-04T16:20:58.275Z,99788.49
2019-04-04T16:23:29.553Z,99789.68
2019-04-04T16:26:01.147Z,99795.87
2019-04-04T16:28:33.650Z,99797.28
2019-04-04T16:31:05.307Z,99797.75
2019-04-04T16:33:37.441Z,99787.34
2019-04-04T16:36:09.179Z,99781.08
2019-04-04T16:38:45.954Z,99777.32
2019-04-04T16:41:20.175Z,99774.32
2019-04-04T16:43:58.651Z,99779.39
2019-04-04T16:46:32.025Z,99782.34
2019-04-04T16:49:04.509Z,99788.99
2019-04-04T16:51:36.378Z,99793.09
2019-04-04T16:54:13.960Z,99789.02
2019-04-04T16:56:46.539Z,99780.87
2019-04-04T16:59:18.209Z,99798.36
2019-04-04T17:01:49.407Z,99799.95
2019-04-04T17:04:21.217Z,99792.33
2019-04-04T17:06:54.683Z,99800.34
2019-04-04T17:09:25.590Z,99800.55
2019-04-04T17:11:57.007Z,99806.05
2019-04-04T17:14:28.326Z,99805.00
2019-04-04T17:17:03.862Z,99815.16
2019-04-04T17:19:35.282Z,99813.17
2019-04-04T17:22:06.529Z,99812.13
2019-04-04T17:24:37.830Z,99814.31
2019-04-04T17:27:09.384Z,99810.66
2019-04-04T17:29:40.889Z,99814.97
2019-04-04T17:32:12.563Z,99814.59
2019-04-04T17:34:44.367Z,99813.25
2019-04-04T17:37:15.774Z,99824.54
2019-04-04T17:39:48.264Z,99826.76
2019-04-04T17:42:29.575Z,99825.97
2019-04-04T17:44:52.692Z,99825.69
2019-04-04T17:47:25.169Z,99835.47
2019-04-04T17:49:56.921Z,99837.48
2019-04-04T17:52:30.187Z,99841.30
2019-04-04T17:55:01.487Z,99845.91
2019-04-04T17:57:32.958Z,99843.70
2019-04-04T18:00:04.927Z,99841.98
2019-04-04T18:02:37.111Z,99839.02
2019-04-04T18:05:08.891Z,99838.80
2019-04-04T18:07:40.292Z,99847.63
2019-04-04T18:10:12.401Z,99851.52
2019-04-04T18:12:43.906Z,99856.22
2019-04-04T18:15:16.339Z,99870.84
2019-04-04T18:17:47.607Z,99877.70
2019-04-04T18:20:19.145Z,99889.66
2019-04-04T18:22:50.370Z,99900.86
2019-04-04T18:25:21.572Z,99909.87
2019-04-04T18:27:53.325Z,99903.83
2019-04-04T18:30:24.940Z,99910.43
2019-04-04T18:32:56.994Z,99910.73
2019-04-04T18:35:28.774Z,99917.56
2019-04-04T18:38:02.472Z,99918.60
2019-04-04T18:40:33.787Z,99923.16
2019-04-04T18:43:05.203Z,99932.54
2019-04-04T18:45:36.447Z,99939.69
2019-04-04T18:48:07.950Z,99943.14
2019-04-04T18:50:39.717Z,99941.61
2019-04-04T18:53:11.085Z,99941.13
2019-04-04T18:55:42.379Z,99935.67
2019-04-04T18:58:13.849Z,99937.30
2019-04-04T19:00:46.542Z,99939.59
2019-04-04T19:03:17.924Z,99945.23
2019-04-04T19:05:49.608Z,99940.82
2019-04-04T19:08:20.879Z,99958.22
2019-04-04T19:10:52.502Z,99953.16
2019-04-04T19:13:24.107Z,99952.38
2019-04-04T19:15:55.887Z,99954.76
2019-04-04T19:18:27.275Z,99960.30
2019-04-04T19:20:58.731Z,99958.20
2019-04-04T19:23:30.410Z,99956.82
2019-04-04T19:26:02.780Z,99958.69
2019-04-04T19:28:36.146Z,99963.78
2019-04-04T19:31:08.015Z,99963.81
2019-04-04T19:33:39.425Z,99964.55
2019-04-04T19:36:10.724Z,99961.66
2019-04-04T19:38:42.138Z,99963.73
2019-04-04T19:41:13.452Z,99964.13
2019-04-04T19:43:44.753Z,99968.41
2019-04-04T19:46:15.988Z,99969.45
2019-04-04T19:48:48.477Z,99975.73
2019-04-04T19:51:19.767Z,99969.10
2019-04-04T19:53:51.047Z,99967.95
2019-04-04T19:56:22.325Z,99964.27
2019-04-04T19:58:54.113Z,99974.03
2019-04-04T20:01:26.794Z,99973.23
2019-04-04T20:03:58.218Z,99972.08
2019-04-04T20:06:29.595Z,99966.95
2019-04-04T20:09:01.186Z,99969.38
2019-04-04T20:11:34.111Z,99973.38
2019-04-04T20:14:05.371Z,99970.09
2019-04-04T20:16:36.645Z,99970.01
2019-04-04T20:19:07.978Z,99969.97
2019-04-04T20:21:39.694Z,99968.63
2019-04-04T20:24:11.049Z,99965.38
2019-04-04T20:26:44.374Z,99963.41
2019-04-04T20:29:15.271Z,99976.56
2019-04-04T20:31:46.719Z,99971.63
2019-04-04T20:34:18.117Z,99968.78
2019-04-04T20:36:49.502Z,99967.30
2019-04-04T20:39:21.361Z,99954.14
2019-04-04T20:41:52.564Z,99950.26
2019-04-04T20:44:23.895Z,99953.39
2019-04-04T20:46:55.289Z,99955.13
2019-04-04T20:49:26.499Z,99962.37
2019-04-04T20:51:57.827Z,99971.37
2019-04-04T20:54:29.068Z,99972.41
2019-04-04T20:57:00.369Z,99960.07
2019-04-04T20:59:31.621Z,99966.48
2019-04-04T21:02:03.924Z,99982.28
2019-04-04T21:04:35.312Z,99975.90
2019-04-04T21:07:06.587Z,99975.57
2019-04-04T21:09:38.034Z,99975.90
2019-04-04T21:12:11.332Z,99963.02
2019-04-04T21:14:42.577Z,99962.08
2019-04-04T21:17:13.956Z,99964.89
2019-04-04T21:19:45.638Z,99969.52
2019-04-04T21:22:26.973Z,99969.91
2019-04-04T21:24:50.736Z,99981.86
2019-04-04T21:27:22.006Z,99981.46
2019-04-04T21:29:53.324Z,99983.29
2019-04-04T21:32:25.071Z,99978.80
2019-04-04T21:34:56.946Z,99983.66
2019-04-04T21:37:28.192Z,99980.86
2019-04-04T21:39:59.489Z,99979.53
2019-04-04T21:42:31.124Z,99977.83
2019-04-04T21:45:02.882Z,99973.25
2019-04-04T21:47:34.462Z,99979.84
2019-04-04T21:50:06.222Z,99981.25
2019-04-04T21:52:38.790Z,99988.83
2019-04-04T21:55:10.418Z,99982.05
2019-04-04T21:57:41.975Z,99985.70
2019-04-04T22:00:14.106Z,99979.03
2019-04-04T22:02:46.923Z,99980.23
2019-04-04T22:05:18.258Z,99972.22
2019-04-04T22:07:49.478Z,99974.27
2019-04-04T22:10:20.800Z,99977.58
2019-04-04T22:12:52.133Z,99975.78
2019-04-04T22:15:23.420Z,99976.41
2019-04-04T22:17:55.148Z,99978.10
2019-04-04T22:20:26.481Z,99980.20
2019-04-04T22:22:57.869Z,99976.77
2019-04-04T22:25:29.243Z,99978.55
2019-04-04T22:28:00.545Z,99975.56
2019-04-04T22:30:31.798Z,99976.94
2019-04-04T22:33:03.194Z,99977.66
2019-04-04T22:35:34.943Z,99971.59
2019-04-04T22:38:06.196Z,99978.98
2019-04-04T22:40:37.467Z,99977.59
2019-04-04T22:43:08.652Z,99985.20
2019-04-04T22:48:18.193Z,99957.91
2019-04-04T22:50:49.552Z,99960.63
2019-04-04T22:53:20.802Z,99961.28
2019-04-04T22:55:52.729Z,99955.55
2019-04-04T22:58:28.609Z,99955.55
2019-04-04T23:00:56.961Z,99962.30
2019-04-04T23:03:29.777Z,99959.15
2019-04-04T23:06:01.087Z,99961.91
2019-04-04T23:08:32.383Z,99957.81
2019-04-04T23:11:06.484Z,99960.25
2019-04-04T23:13:37.765Z,99961.67
2019-04-04T23:16:09.628Z,99961.37
2019-04-04T23:18:40.810Z,99969.38
2019-04-04T23:21:12.066Z,99972.36
2019-04-04T23:23:43.347Z,99963.86
2019-04-04T23:26:14.933Z,99967.41
2019-04-04T23:28:46.675Z,99966.95
2019-04-04T23:31:17.978Z,99964.03
2019-04-04T23:33:49.197Z,99971.72
2019-04-04T23:36:20.495Z,99979.58
2019-04-04T23:38:51.801Z,99973.71
2019-04-04T23:41:23.032Z,99981.70
2019-04-04T23:43:54.644Z,99986.11
2019-04-04T23:46:25.911Z,99984.37
2019-04-04T23:48:57.290Z,99984.77
2019-04-04T23:51:29.145Z,99967.81
2019-04-04T23:54:00.902Z,99972.52
2019-04-04T23:56:32.094Z,99974.94
2019-04-04T23:59:03.381Z,99978.63
